Terminal Aerodrome Forecast
Issued by NWS

Home | Current Version | Previous Version | Text Only | Print | Product List | Glossary On
Versions: 1 2 3 4 5 6 7 8 9 10 11 12 13 14 15 16 17 18 19 20 21 22 23
338
FTUS46 KSEW 300520
TAFPAE
TAF
KPAE 300520Z 3006/3106 07007KT P6SM VCSH SCT007 SCT015 OVC020
      TEMPO 3006/3008 4SM -RA BR BKN007
     FM300800 22010KT P6SM VCSH OVC009
     FM301800 26007KT P6SM VCSH OVC022
     FM302300 34005KT P6SM BKN045=

USA.gov is the U.S. government's official web portal to all federal, state and local government web resources and services.